createdAt,value
2023-05-13T00:02:42.030Z,101527.11
2023-05-13T00:06:37.182Z,101525.86
2023-05-13T00:10:36.568Z,101532.13
2023-05-13T00:14:31.947Z,101532.25
2023-05-13T00:18:31.427Z,101533.46
2023-05-13T00:22:27.078Z,101532.70
2023-05-13T00:26:26.920Z,101533.71
2023-05-13T00:30:22.080Z,101531.86
2023-05-13T00:34:21.743Z,101531.38
2023-05-13T00:38:17.089Z,101529.36
2023-05-13T00:42:16.588Z,101531.52
2023-05-13T00:46:12.184Z,101529.96
2023-05-13T00:50:11.658Z,101532.60
2023-05-13T00:54:07.030Z,101536.52
2023-05-13T00:58:06.979Z,101536.06
2023-05-13T01:02:02.294Z,101536.02
2023-05-13T01:06:01.581Z,101529.77
2023-05-13T01:09:57.050Z,101529.41
2023-05-13T01:13:56.413Z,101531.08
2023-05-13T01:17:52.171Z,101535.19
2023-05-13T01:21:51.165Z,101537.63
2023-05-13T01:25:47.212Z,101533.16
2023-05-13T01:29:46.699Z,101542.20
2023-05-13T01:33:43.202Z,101539.36
2023-05-13T01:37:41.094Z,101544.15
2023-05-13T01:41:40.228Z,101535.77
2023-05-13T01:45:35.992Z,101539.79
2023-05-13T01:49:35.451Z,101539.13
2023-05-13T01:53:31.450Z,101547.20
2023-05-13T01:57:30.774Z,101540.04
2023-05-13T02:01:26.517Z,101546.66
2023-05-13T02:05:25.848Z,101547.55
2023-05-13T02:09:22.116Z,101549.20
2023-05-13T02:13:21.700Z,101557.57
2023-05-13T02:17:17.467Z,101562.67
2023-05-13T02:21:16.743Z,101560.79
2023-05-13T02:25:10.558Z,101562.59
2023-05-13T02:29:07.795Z,101558.63
2023-05-13T02:33:07.835Z,101559.05
2023-05-13T02:37:07.245Z,101562.83
2023-05-13T02:41:05.110Z,101562.89
2023-05-13T02:45:04.192Z,101568.60
2023-05-13T02:49:00.256Z,101570.45
2023-05-13T02:52:59.460Z,101569.98
2023-05-13T02:56:52.470Z,101569.03
2023-05-13T03:00:54.216Z,101569.77
2023-05-13T03:04:48.491Z,101568.12
2023-05-13T03:08:33.662Z,101570.10
2023-05-13T03:12:18.621Z,101571.92
2023-05-13T03:16:03.687Z,101574.07
2023-05-13T03:19:54.823Z,101578.13
2023-05-13T03:23:46.337Z,101583.43
2023-05-13T03:27:38.142Z,101582.80
2023-05-13T03:31:37.822Z,101582.41
2023-05-13T03:35:34.524Z,101584.21
2023-05-13T03:39:34.670Z,101579.74
2023-05-13T03:43:30.463Z,101584.23
2023-05-13T03:47:32.600Z,101586.00
2023-05-13T03:51:30.289Z,101586.41
2023-05-13T03:55:29.597Z,101585.61
2023-05-13T03:59:24.539Z,101590.17
2023-05-13T04:03:10.049Z,101592.55
2023-05-13T04:06:54.993Z,101599.17
2023-05-13T04:10:40.077Z,101595.67
2023-05-13T04:14:24.821Z,101594.06
2023-05-13T04:18:09.810Z,101594.65
2023-05-13T04:21:54.860Z,101591.16
2023-05-13T04:25:48.280Z,101595.02
2023-05-13T04:29:39.579Z,101593.55
2023-05-13T04:33:39.178Z,101595.45
2023-05-13T04:37:35.466Z,101596.30
2023-05-13T04:41:38.156Z,101591.80
2023-05-13T04:45:33.543Z,101596.73
2023-05-13T04:49:33.566Z,101604.71
2023-05-13T04:53:29.423Z,101604.84
2023-05-13T04:57:32.128Z,101601.55
2023-05-13T05:01:25.519Z,101603.16
2023-05-13T05:05:10.659Z,101603.30
2023-05-13T05:08:56.330Z,101606.38
2023-05-13T05:12:42.733Z,101601.84
2023-05-13T05:16:27.956Z,101595.30
2023-05-13T05:20:23.000Z,101603.84
2023-05-13T05:24:15.228Z,101600.14
2023-05-13T05:28:10.453Z,101597.56
2023-05-13T05:32:12.832Z,101605.81
2023-05-13T05:36:08.968Z,101604.14
2023-05-13T05:40:08.796Z,101603.10
2023-05-13T05:44:07.480Z,101607.10
2023-05-13T05:48:07.159Z,101605.30
2023-05-13T05:52:03.965Z,101603.33
2023-05-13T05:56:03.891Z,101609.93
2023-05-13T05:59:59.589Z,101610.55
2023-05-13T06:03:58.680Z,101610.20
2023-05-13T06:07:54.835Z,101617.70
2023-05-13T06:11:54.118Z,101610.95
2023-05-13T06:15:49.805Z,101618.36
2023-05-13T06:19:49.301Z,101620.02
2023-05-13T06:23:44.692Z,101621.90
2023-05-13T06:27:46.114Z,101625.09
2023-05-13T06:31:41.932Z,101625.48
2023-05-13T06:35:41.087Z,101626.62
2023-05-13T06:39:37.560Z,101630.09
2023-05-13T06:43:37.403Z,101627.34
2023-05-13T06:47:42.753Z,101626.11
2023-05-13T06:51:43.980Z,101626.98
2023-05-13T06:55:39.870Z,101626.67
2023-05-13T06:59:39.349Z,101628.81
2023-05-13T07:03:34.907Z,101623.73
2023-05-13T07:07:34.398Z,101624.02
2023-05-13T07:11:29.697Z,101628.50
2023-05-13T07:15:28.961Z,101624.54
2023-05-13T07:19:24.800Z,101626.70
2023-05-13T07:23:24.272Z,101619.05
2023-05-13T07:27:20.069Z,101617.22
2023-05-13T07:31:19.604Z,101612.86
2023-05-13T07:35:14.951Z,101613.55
2023-05-13T07:39:14.013Z,101611.25
2023-05-13T07:43:09.673Z,101611.87
2023-05-13T07:47:08.653Z,101611.29
2023-05-13T07:51:03.876Z,101610.68
2023-05-13T07:55:03.209Z,101606.83
2023-05-13T07:58:58.832Z,101604.33
2023-05-13T08:02:58.453Z,101604.20
2023-05-13T08:06:53.896Z,101602.66
2023-05-13T08:10:53.041Z,101599.31
2023-05-13T08:14:49.140Z,101599.95
2023-05-13T08:18:48.347Z,101598.66
2023-05-13T08:22:43.715Z,101594.41
2023-05-13T08:26:43.226Z,101597.00
2023-05-13T08:30:36.341Z,101594.14
2023-05-13T08:34:12.202Z,101593.32
2023-05-13T08:38:15.404Z,101588.76
2023-05-13T08:42:10.956Z,101590.64
2023-05-13T08:46:10.527Z,101586.50
2023-05-13T08:50:06.087Z,101582.58
2023-05-13T08:54:05.809Z,101579.86
2023-05-13T08:57:58.931Z,101576.09
2023-05-13T09:01:34.927Z,101573.56
2023-05-13T09:05:32.188Z,101564.66
2023-05-13T09:09:27.837Z,101563.40
2023-05-13T09:13:26.906Z,101560.45
2023-05-13T09:17:22.964Z,101556.31
2023-05-13T09:21:22.076Z,101555.83
2023-05-13T09:25:18.248Z,101550.21
2023-05-13T09:29:15.376Z,101546.71
2023-05-13T09:33:11.057Z,101548.44
2023-05-13T09:37:10.457Z,101543.77
2023-05-13T09:41:05.963Z,101533.59
2023-05-13T09:45:05.617Z,101529.83
2023-05-13T09:49:00.959Z,101524.44
2023-05-13T09:53:00.060Z,101521.77
2023-05-13T09:56:55.188Z,101523.88
2023-05-13T10:00:52.377Z,101518.34
2023-05-13T10:04:52.609Z,101517.41
2023-05-13T10:08:52.209Z,101512.61
2023-05-13T10:12:48.362Z,101506.62
2023-05-13T10:16:47.671Z,101506.14
2023-05-13T10:20:43.114Z,101509.74
2023-05-13T10:24:41.001Z,101506.63
2023-05-13T10:28:34.263Z,101502.48
2023-05-13T10:32:37.954Z,101499.23
2023-05-13T10:36:33.138Z,101493.85
2023-05-13T10:40:32.694Z,101491.55
2023-05-13T10:44:28.166Z,101489.64
2023-05-13T10:48:27.811Z,101485.40
2023-05-13T10:52:23.487Z,101486.20
2023-05-13T10:56:20.405Z,101482.17
2023-05-13T11:00:21.164Z,101475.45
2023-05-13T11:04:20.843Z,101474.18
2023-05-13T11:08:18.897Z,101472.05
2023-05-13T11:12:10.093Z,101468.35
2023-05-13T11:15:58.838Z,101467.17
2023-05-13T11:19:47.370Z,101472.62
2023-05-13T11:23:33.980Z,101463.97
2023-05-13T11:27:20.372Z,101458.81
2023-05-13T11:31:09.282Z,101459.45
2023-05-13T11:34:55.798Z,101459.11
2023-05-13T11:38:40.633Z,101457.56
2023-05-13T11:42:25.620Z,101451.91
2023-05-13T11:46:10.958Z,101446.37
2023-05-13T11:49:56.088Z,101441.41
2023-05-13T11:53:41.201Z,101434.48
2023-05-13T11:57:26.299Z,101434.30
2023-05-13T12:01:11.548Z,101433.23
2023-05-13T12:04:56.798Z,101428.98
2023-05-13T12:08:47.870Z,101430.62
2023-05-13T12:12:39.334Z,101427.90
2023-05-13T12:16:31.506Z,101425.34
2023-05-13T12:20:30.697Z,101426.21
2023-05-13T12:24:26.318Z,101423.63
2023-05-13T12:28:25.862Z,101421.48
2023-05-13T12:32:21.514Z,101421.09
2023-05-13T12:36:21.028Z,101417.19
2023-05-13T12:40:16.539Z,101418.92
2023-05-13T12:44:15.718Z,101412.99
2023-05-13T12:48:11.360Z,101410.58
2023-05-13T12:51:56.282Z,101406.16
2023-05-13T12:55:41.233Z,101402.60
2023-05-13T12:59:26.303Z,101401.73
2023-05-13T13:03:11.838Z,101399.83
2023-05-13T13:06:57.092Z,101388.02
2023-05-13T13:10:42.166Z,101384.56
2023-05-13T13:14:27.280Z,101385.91
2023-05-13T13:18:12.574Z,101384.04
2023-05-13T13:22:03.765Z,101383.62
2023-05-13T13:25:55.168Z,101382.88
2023-05-13T13:29:56.398Z,101381.34
2023-05-13T13:33:55.913Z,101381.96
2023-05-13T13:37:51.331Z,101380.03
2023-05-13T13:41:53.545Z,101375.38
2023-05-13T13:45:49.841Z,101372.23
2023-05-13T13:49:48.911Z,101366.52
2023-05-13T13:53:44.378Z,101364.29
2023-05-13T13:57:43.729Z,101360.96
2023-05-13T14:01:40.496Z,101360.47
2023-05-13T14:05:40.012Z,101360.23
2023-05-13T14:09:35.329Z,101356.08
2023-05-13T14:13:37.669Z,101359.60
2023-05-13T14:17:33.762Z,101360.84
2023-05-13T14:21:32.807Z,101360.27
2023-05-13T14:25:31.482Z,101358.20
2023-05-13T14:29:30.756Z,101356.27
2023-05-13T14:33:26.428Z,101357.58
2023-05-13T14:37:25.447Z,101354.02
2023-05-13T14:41:20.406Z,101358.10
2023-05-13T14:45:19.592Z,101358.32
2023-05-13T14:49:16.005Z,101360.79
2023-05-13T14:53:15.316Z,101361.36
2023-05-13T14:57:10.688Z,101358.59
2023-05-13T15:01:10.244Z,101359.91
2023-05-13T15:05:14.461Z,101357.59
2023-05-13T15:09:12.518Z,101356.64
2023-05-13T15:13:14.238Z,101359.25
2023-05-13T15:17:12.883Z,101357.33
2023-05-13T15:21:15.351Z,101355.46
2023-05-13T15:25:13.421Z,101357.18
2023-05-13T15:29:14.840Z,101358.85
2023-05-13T15:33:13.463Z,101356.21
2023-05-13T15:37:14.960Z,101354.04
2023-05-13T15:41:13.603Z,101354.98
2023-05-13T15:45:14.966Z,101354.58
2023-05-13T15:49:13.618Z,101354.97
2023-05-13T15:53:15.051Z,101359.52
2023-05-13T15:57:13.391Z,101354.55
2023-05-13T16:01:14.959Z,101352.02
2023-05-13T16:05:13.513Z,101352.18
2023-05-13T16:09:14.959Z,101350.75
2023-05-13T16:13:13.678Z,101355.73
2023-05-13T16:17:14.992Z,101355.95
2023-05-13T16:21:13.450Z,101358.91
2023-05-13T16:25:15.093Z,101357.86
2023-05-13T16:29:13.521Z,101355.98
2023-05-13T16:33:15.116Z,101356.27
2023-05-13T16:37:13.546Z,101360.73
2023-05-13T16:41:14.784Z,101357.91
2023-05-13T16:45:13.650Z,101359.44
2023-05-13T16:49:15.023Z,101362.45
2023-05-13T16:53:13.579Z,101365.02
2023-05-13T16:57:15.093Z,101365.10
2023-05-13T17:01:13.613Z,101367.92
2023-05-13T17:05:15.045Z,101371.02
2023-05-13T17:09:10.827Z,101372.79
2023-05-13T17:13:10.243Z,101376.02
2023-05-13T17:17:05.866Z,101374.22
2023-05-13T17:21:05.221Z,101375.52
2023-05-13T17:25:00.915Z,101379.96
2023-05-13T17:29:00.386Z,101383.17
2023-05-13T17:32:55.819Z,101386.20
2023-05-13T17:36:54.803Z,101392.82
2023-05-13T17:40:50.010Z,101400.77
2023-05-13T17:44:49.438Z,101400.55
2023-05-13T17:48:44.993Z,101402.47
2023-05-13T17:52:44.866Z,101405.90
2023-05-13T17:56:40.927Z,101407.02
2023-05-13T18:00:39.863Z,101406.77
2023-05-13T18:04:38.128Z,101410.07
2023-05-13T18:08:34.026Z,101411.94
2023-05-13T18:12:33.656Z,101414.50
2023-05-13T18:16:29.160Z,101415.07
2023-05-13T18:20:28.389Z,101414.89
2023-05-13T18:24:23.908Z,101419.42
2023-05-13T18:28:23.087Z,101418.64
2023-05-13T18:32:18.953Z,101420.36
2023-05-13T18:36:18.429Z,101415.27
2023-05-13T18:40:13.971Z,101412.98
2023-05-13T18:44:13.349Z,101417.55
2023-05-13T18:48:09.048Z,101420.28
2023-05-13T18:52:08.517Z,101420.77
2023-05-13T18:56:03.955Z,101430.29
2023-05-13T19:00:03.049Z,101426.13
2023-05-13T19:03:59.082Z,101427.53
2023-05-13T19:07:58.643Z,101420.12
2023-05-13T19:11:53.866Z,101424.16
2023-05-13T19:15:52.762Z,101428.98
2023-05-13T19:19:48.181Z,101432.05
2023-05-13T19:23:47.742Z,101429.52
2023-05-13T19:27:43.307Z,101427.90
2023-05-13T19:31:42.404Z,101426.45
2023-05-13T19:35:38.049Z,101426.52
2023-05-13T19:39:37.070Z,101420.60
2023-05-13T19:43:33.174Z,101413.73
2023-05-13T19:47:33.095Z,101406.89
2023-05-13T19:51:28.920Z,101403.25
2023-05-13T19:55:28.099Z,101400.81
2023-05-13T19:59:23.228Z,101394.08
2023-05-13T20:03:22.947Z,101395.45
2023-05-13T20:07:18.150Z,101399.05
2023-05-13T20:11:17.496Z,101396.17
2023-05-13T20:15:12.930Z,101397.59
2023-05-13T20:19:12.139Z,101395.42
2023-05-13T20:23:08.323Z,101392.08
2023-05-13T20:27:07.956Z,101394.00
2023-05-13T20:31:03.056Z,101393.89
2023-05-13T20:35:02.204Z,101389.17
2023-05-13T20:38:58.101Z,101389.96
2023-05-13T20:42:57.801Z,101386.77
2023-05-13T20:46:53.125Z,101389.78
2023-05-13T20:50:52.231Z,101393.96
2023-05-13T20:54:48.282Z,101389.22
2023-05-13T20:58:47.876Z,101392.55
2023-05-13T21:02:43.090Z,101383.13
2023-05-13T21:06:42.098Z,101381.91
2023-05-13T21:10:37.061Z,101386.77
2023-05-13T21:14:36.173Z,101383.38
2023-05-13T21:18:32.029Z,101383.03
2023-05-13T21:22:31.481Z,101379.34
2023-05-13T21:26:27.448Z,101381.88
2023-05-13T21:30:26.801Z,101380.21
2023-05-13T21:34:23.694Z,101377.98
2023-05-13T21:38:22.936Z,101376.04
2023-05-13T21:42:19.789Z,101374.84
2023-05-13T21:46:20.210Z,101378.79
2023-05-13T21:50:16.475Z,101377.17
2023-05-13T21:54:16.069Z,101373.98
2023-05-13T21:58:13.956Z,101370.58
2023-05-13T22:02:14.216Z,101376.86
2023-05-13T22:06:11.089Z,101379.47
2023-05-13T22:10:11.145Z,101376.59
2023-05-13T22:14:08.081Z,101373.10
2023-05-13T22:18:08.199Z,101372.05
2023-05-13T22:22:05.032Z,101372.10
2023-05-13T22:26:05.176Z,101374.91
2023-05-13T22:30:01.958Z,101367.69
2023-05-13T22:34:01.312Z,101374.05
2023-05-13T22:37:58.324Z,101375.38
2023-05-13T22:41:57.551Z,101379.29
2023-05-13T22:45:55.357Z,101381.90
2023-05-13T22:49:55.116Z,101381.09
2023-05-13T22:53:52.446Z,101378.77
2023-05-13T22:57:52.254Z,101379.63
2023-05-13T23:01:50.246Z,101378.76
2023-05-13T23:05:49.311Z,101376.59
2023-05-13T23:09:46.467Z,101376.34
2023-05-13T23:13:46.117Z,101377.63
2023-05-13T23:17:43.339Z,101377.94
2023-05-13T23:21:42.981Z,101381.79
2023-05-13T23:25:40.812Z,101375.02
2023-05-13T23:29:40.324Z,101379.80
2023-05-13T23:33:39.074Z,101376.39
2023-05-13T23:37:39.169Z,101376.56
2023-05-13T23:41:36.635Z,101374.79
2023-05-13T23:45:36.295Z,101373.13
2023-05-13T23:49:33.393Z,101380.42
2023-05-13T23:53:33.277Z,101374.52
2023-05-13T23:57:30.408Z,101366.30
